Time;durP1;ratioP1;P1;durP2;ratioP2;P2;SDS_P1;SDS_P2;PMS_P1;PMS_P2;Temp;Humidity;BMP_temperature;BMP_pressure;BME280_temperature;BME280_humidity;BME280_pressure;Samples;Min_cycle;Max_cycle;Signal;HPM_P1;HPM_P2
2022/03/21 00:00:48;;;;;;;;;;;52.10;1331.20;;;;;;6249092;23;19945;-75
2022/03/21 00:03:15;;;;;;;;;;;51.90;1433.60;;;;;;6250287;23;19957;-75
2022/03/21 00:05:40;;;;;;;;;;;51.80;1356.80;;;;;;6249560;23;19899;-75
2022/03/21 00:08:06;;;;;;;;;;;51.80;1356.80;;;;;;6250516;23;19906;-75
2022/03/21 00:10:33;;;;;;;;;;;51.70;1356.80;;;;;;6253459;23;19930;-75
2022/03/21 00:13:00;;;;;;;;;;;51.80;1356.80;;;;;;6251629;23;19906;-75
2022/03/21 00:15:26;;;;;;;;;;;51.70;1356.80;;;;;;6250328;23;19943;-75
2022/03/21 00:17:53;;;;;;;;;;;51.60;1382.40;;;;;;6253568;23;19900;-75
2022/03/21 00:20:20;;;;;;;;;;;51.70;1382.40;;;;;;6252000;23;19982;-75
2022/03/21 00:22:45;;;;;;;;;;;51.60;2150.40;;;;;;6251265;23;19904;-75
2022/03/21 00:25:18;;;;;;;;;;;51.60;1561.60;;;;;;6250045;23;19912;-75
2022/03/21 00:27:44;;;;;;;;;;;;;;;;;;6253652;23;19911;-75
2022/03/21 00:30:10;;;;;;;;;;;;;;;;;;6250663;23;19907;-75
2022/03/21 00:32:37;;;;;;;;;;;;;;;;;;6252370;23;19906;-76
2022/03/21 00:35:04;;;;;;;;;;;;;;;;;;6252307;23;19900;-75
2022/03/21 00:37:31;;;;;;;;;;;;;;;;;;6224675;23;19926;-75
2022/03/21 00:39:58;;;;;;;;;;;;;;;;;;6251926;23;19906;-75
2022/03/21 00:42:26;;;;;;;;;;;51.60;1484.80;;;;;;6251553;23;19904;-75
2022/03/21 00:44:56;;;;;;;;;;;51.40;1484.80;;;;;;6224689;23;19904;-75
2022/03/21 00:47:22;;;;;;;;;;;51.50;1433.60;;;;;;6252976;23;19927;-75
2022/03/21 00:49:48;;;;;;;;;;;;;;;;;;6254437;23;19908;-76
2022/03/21 00:52:14;;;;;;;;;;;;;;;;;;6228025;23;19904;-75
2022/03/21 00:54:40;;;;;;;;;;;;;;;;;;6230007;23;19899;-75
2022/03/21 00:57:06;;;;;;;;;;;;;;;;;;6257289;23;19899;-75
2022/03/21 00:59:32;;;;;;;;;;;;;;;;;;6230263;23;19906;-75
2022/03/21 01:02:00;;;;;;;;;;;;;;;;;;6256383;23;19899;-75
2022/03/21 01:04:29;;;;;;;;;;;;;;;;;;6258736;23;19934;-75
2022/03/21 01:06:55;;;;;;;;;;;;;;;;;;6257053;23;20238;-76
2022/03/21 01:09:21;;;;;;;;;;;;;;;;;;6256488;23;20313;-76
2022/03/21 01:11:49;;;;;;;;;;;;;;;;;;6257671;23;19907;-75
2022/03/21 01:14:15;;;;;;;;;;;;;;;;;;6230924;23;19910;-75
2022/03/21 01:16:41;;;;;;;;;;;;;;;;;;6257087;23;19923;-75
2022/03/21 01:19:08;;;;;;;;;;;;;;;;;;6257838;23;19922;-75
2022/03/21 01:21:35;;;;;;;;;;;;;;;;;;6257677;23;19903;-76
2022/03/21 01:24:03;;;;;;;;;;;;;;;;;;6258675;23;19912;-76
2022/03/21 01:26:29;;;;;;;;;;;;;;;;;;6258881;23;19906;-76
2022/03/21 01:28:56;;;;;;;;;;;;;;;;;;6231199;23;19903;-75
2022/03/21 01:31:24;;;;;;;;;;;;;;;;;;6232433;23;19990;-76
2022/03/21 01:33:50;;;;;;;;;;;;;;;;;;6260995;23;19922;-76
2022/03/21 01:36:16;;;;;;;;;;;;;;;;;;6232786;23;19899;-75
2022/03/21 01:38:42;;;;;;;;;;;;;;;;;;6259343;23;19907;-76
2022/03/21 01:41:20;;;;;;;;;;;;;;;;;;6258857;23;19899;-76
2022/03/21 01:43:46;;;;;;;;;;;;;;;;;;6232450;23;19900;-75
2022/03/21 01:46:13;;;;;;;;;;;;;;;;;;6259894;23;19900;-75
2022/03/21 01:48:40;;;;;;;;;;;;;;;;;;6231408;23;19923;-76
2022/03/21 01:51:09;;;;;;;;;;;;;;;;;;6257762;23;19915;-75
2022/03/21 01:56:19;;;;;;;;;;;51.20;1408.00;;;;;;6258186;23;19906;-77
2022/03/21 01:58:45;;;;;;;;;;;26.40;1408.00;;;;;;6233418;23;19899;-75
2022/03/21 02:01:12;;;;;;;;;;;26.20;1408.00;;;;;;6234704;23;19900;-75
2022/03/21 02:03:39;;;;;;;;;;;26.20;1408.00;;;;;;6262231;23;20333;-76
2022/03/21 02:06:07;;;;;;;;;;;26.20;1408.00;;;;;;6261806;23;19899;-76
2022/03/21 02:08:33;;;;;;;;;;;;;;;;;;6261002;23;19900;-75
2022/03/21 02:11:00;;;;;;;;;;;26.40;1382.40;;;;;;6233308;23;19915;-75
2022/03/21 02:13:26;;;;;;;;;;;26.30;1510.40;;;;;;6260484;23;19922;-75
2022/03/21 02:15:52;;;;;;;;;;;26.20;1382.40;;;;;;6234490;23;19900;-75
2022/03/21 02:18:25;;;;;;;;;;;26.20;1408.00;;;;;;6265508;23;20305;-75
2022/03/21 02:20:58;;;;;;;;;;;26.20;2201.60;;;;;;6264910;23;19943;-75
2022/03/21 02:23:25;;;;;;;;;;;26.20;1433.60;;;;;;6233156;23;19937;-75
2022/03/21 02:25:54;;;;;;;;;;;26.10;1408.00;;;;;;6229493;23;19907;-75
2022/03/21 02:28:20;;;;;;;;;;;26.10;1408.00;;;;;;6229886;23;19900;-75
2022/03/21 02:30:48;;;;;;;;;;;26.00;1433.60;;;;;;6202595;23;19914;-75
2022/03/21 02:33:20;;;;;;;;;;;26.10;1408.00;;;;;;6204331;23;19900;-76
2022/03/21 02:35:47;;;;;;;;;;;26.00;1433.60;;;;;;6234497;23;19906;-76
2022/03/21 02:38:16;;;;;;;;;;;25.90;1433.60;;;;;;6209351;23;19904;-75
2022/03/21 02:40:43;;;;;;;;;;;25.90;1433.60;;;;;;6236019;23;19900;-75
2022/03/21 02:43:08;;;;;;;;;;;25.90;1459.20;;;;;;6211054;23;19907;-76
2022/03/21 02:45:36;;;;;;;;;;;26.00;1459.20;;;;;;6237554;23;19943;-75
2022/03/21 02:48:07;;;;;;;;;;;25.80;1459.20;;;;;;6237626;23;19950;-76
2022/03/21 02:50:51;;;;;;;;;;;25.80;1433.60;;;;;;6210985;23;19908;-75
2022/03/21 02:53:17;;;;;;;;;;;25.90;1433.60;;;;;;6208118;23;19900;-75
2022/03/21 02:55:43;;;;;;;;;;;25.80;1459.20;;;;;;6208979;23;19920;-76
2022/03/21 02:58:32;;;;;;;;;;;25.80;1459.20;;;;;;6237346;23;19906;-75
2022/03/21 03:01:12;;;;;;;;;;;25.80;1459.20;;;;;;6222433;23;19931;-75
2022/03/21 03:03:38;;;;;;;;;;;25.80;1459.20;;;;;;6262349;23;20321;-76
2022/03/21 03:06:03;;;;;;;;;;;25.80;1459.20;;;;;;6231811;23;19972;-75
2022/03/21 03:08:32;;;;;;;;;;;25.80;1459.20;;;;;;6231586;23;19931;-75
2022/03/21 03:10:58;;;;;;;;;;;25.90;1459.20;;;;;;6241911;23;19908;-75
2022/03/21 03:13:23;;;;;;;;;;;25.90;1459.20;;;;;;6267066;23;19907;-76
2022/03/21 03:15:57;;;;;;;;;;;25.90;1459.20;;;;;;6266788;23;19899;-75
2022/03/21 03:18:22;;;;;;;;;;;25.80;1459.20;;;;;;6236506;23;19923;-76
2022/03/21 03:20:57;;;;;;;;;;;25.60;1433.60;;;;;;6240891;23;19900;-76
2022/03/21 03:23:24;;;;;;;;;;;25.70;1459.20;;;;;;6267813;23;19944;-76
2022/03/21 03:26:09;;;;;;;;;;;25.70;1817.60;;;;;;6240989;23;19900;-76
2022/03/21 03:28:44;;;;;;;;;;;0.90;1484.80;;;;;;6239595;23;19906;-76
2022/03/21 03:31:33;;;;;;;;;;;0.80;1459.20;;;;;;6267853;23;19914;-75
2022/03/21 03:33:59;;;;;;;;;;;0.80;1484.80;;;;;;6268414;23;19900;-75
2022/03/21 03:36:29;;;;;;;;;;;0.70;1484.80;;;;;;6268882;23;19884;-75
2022/03/21 03:38:55;;;;;;;;;;;0.70;1484.80;;;;;;6268799;23;19903;-76
2022/03/21 03:41:21;;;;;;;;;;;0.70;1484.80;;;;;;6267774;22;19915;-75
2022/03/21 03:43:50;;;;;;;;;;;0.60;1459.20;;;;;;6240569;23;19903;-76
2022/03/21 03:46:17;;;;;;;;;;;0.50;1484.80;;;;;;6240312;23;19922;-76
2022/03/21 03:49:06;;;;;;;;;;;0.60;1510.40;;;;;;6267398;23;19899;-75
2022/03/21 03:51:32;;;;;;;;;;;0.60;1510.40;;;;;;6149838;23;19901;-75
2022/03/21 03:54:00;;;;;;;;;;;0.60;1510.40;;;;;;6175405;23;19900;-75
2022/03/21 03:56:29;;;;;;;;;;;0.60;1510.40;;;;;;6175652;23;19912;-75
2022/03/21 03:58:57;;;;;;;;;;;0.50;1510.40;;;;;;6149866;23;19900;-75
2022/03/21 04:01:29;;;;;;;;;;;;;;;;;;6173865;23;19908;-77
2022/03/21 04:03:59;;;;;;;;;;;;;;;;;;6173882;23;19905;-75
2022/03/21 04:06:28;;;;;;;;;;;;;;;;;;6173554;23;20012;-76
2022/03/21 04:08:54;;;;;;;;;;;;;;;;;;6174995;23;20323;-76
2022/03/21 04:11:28;;;;;;;;;;;;;;;;;;6174469;23;19950;-75
2022/03/21 04:13:54;;;;;;;;;;;;;;;;;;6150084;23;20404;-76
2022/03/21 04:16:24;;;;;;;;;;;;;;;;;;6174168;23;19908;-76
2022/03/21 04:18:55;;;;;;;;;;;;;;;;;;6151164;23;19900;-75
2022/03/21 04:21:21;;;;;;;;;;;;;;;;;;6156603;23;19909;-75
2022/03/21 04:23:47;;;;;;;;;;;;;;;;;;6241521;23;19907;-76
2022/03/21 04:26:14;;;;;;;;;;;;;;;;;;6241674;23;19939;-76
2022/03/21 04:28:49;;;;;;;;;;;;;;;;;;6268871;23;19951;-75
2022/03/21 04:31:15;;;;;;;;;;;0.20;1561.60;;;;;;6267326;23;19895;-77
2022/03/21 04:33:49;;;;;;;;;;;0.00;2201.60;;;;;;6240422;23;19900;-76
2022/03/21 04:36:15;;;;;;;;;;;12.90;1561.60;;;;;;6266615;23;19900;-77
2022/03/21 04:38:48;;;;;;;;;;;12.90;1561.60;;;;;;6240782;23;19900;-75
2022/03/21 04:41:20;;;;;;;;;;;12.90;1561.60;;;;;;6267504;23;19911;-75
2022/03/21 04:43:55;;;;;;;;;;;12.90;1561.60;;;;;;6268223;23;19899;-75
2022/03/21 04:46:21;;;;;;;;;;;13.00;1561.60;;;;;;6241982;23;19900;-77
2022/03/21 04:48:46;;;;;;;;;;;13.00;1587.20;;;;;;6241521;23;19923;-75
2022/03/21 04:51:15;;;;;;;;;;;13.00;1587.20;;;;;;6240627;23;19914;-75
2022/03/21 04:54:13;;;;;;;;;;;12.90;1561.60;;;;;;6265613;23;19907;-76
2022/03/21 04:56:38;;;;;;;;;;;12.90;1561.60;;;;;;6265357;23;19899;-75
2022/03/21 04:59:07;;;;;;;;;;;12.90;1561.60;;;;;;6237385;23;19923;-75
2022/03/21 05:01:37;;;;;;;;;;;12.90;1561.60;;;;;;6256027;23;19907;-76
2022/03/21 05:04:07;;;;;;;;;;;12.90;1561.60;;;;;;6243175;23;19922;-75
2022/03/21 05:06:54;;;;;;;;;;;12.90;1587.20;;;;;;6266555;23;19923;-75
2022/03/21 05:09:20;;;;;;;;;;;0.00;1561.60;;;;;;6243483;23;19900;-76
2022/03/21 05:11:56;;;;;;;;;;;0.00;1587.20;;;;;;6178099;23;19900;-75
2022/03/21 05:14:21;;;;;;;;;;;0.10;1561.60;;;;;;6179378;23;19901;-75
2022/03/21 05:16:51;;;;;;;;;;;0.10;1587.20;;;;;;6176888;23;19907;-76
2022/03/21 05:19:27;;;;;;;;;;;0.20;1561.60;;;;;;6178351;23;19900;-75
2022/03/21 05:22:08;;;;;;;;;;;0.20;1561.60;;;;;;6178525;23;19924;-76
2022/03/21 05:32:48;;;;;;;;;;;0.30;1561.60;;;;;;6242413;23;19911;-76
2022/03/21 05:37:58;;;;;;;;;;;0.40;1561.60;;;;;;6270925;23;19952;-76
2022/03/21 05:40:34;;;;;;;;;;;0.50;1536.00;;;;;;6245817;23;19907;-76
2022/03/21 05:43:03;;;;;;;;;;;0.70;1536.00;;;;;;6245191;22;19904;-75
2022/03/21 05:45:28;;;;;;;;;;;0.80;1536.00;;;;;;6210646;23;19931;-77
2022/03/21 05:50:40;;;;;;;;;;;25.60;1536.00;;;;;;6211830;23;19907;-76
2022/03/21 05:53:09;;;;;;;;;;;25.70;1510.40;;;;;;6185762;23;19951;-76
2022/03/21 05:55:35;;;;;;;;;;;25.80;1536.00;;;;;;6223391;23;19920;-75
2022/03/21 05:58:01;;;;;;;;;;;25.90;1536.00;;;;;;6214536;23;19900;-75
2022/03/21 06:00:27;;;;;;;;;;;26.00;1536.00;;;;;;6213561;23;19915;-75
2022/03/21 06:02:53;;;;;;;;;;;26.10;1510.40;;;;;;6239604;23;19900;-76
2022/03/21 06:05:21;;;;;;;;;;;26.10;1484.80;;;;;;6239839;23;19900;-76
2022/03/21 06:07:47;;;;;;;;;;;26.30;1484.80;;;;;;6214300;23;19907;-75
2022/03/21 06:10:13;;;;;;;;;;;26.30;1484.80;;;;;;6240176;23;19960;-75
2022/03/21 06:13:15;;;;;;;;;;;25.80;1484.80;;;;;;6212658;23;19900;-75
2022/03/21 06:15:42;;;;;;;;;;;26.50;1484.80;;;;;;6238287;23;19907;-76
2022/03/21 06:18:13;;;;;;;;;;;51.20;1510.40;;;;;;6215083;23;19904;-76
2022/03/21 06:20:44;;;;;;;;;;;51.20;1510.40;;;;;;6238416;23;19903;-76
2022/03/21 06:23:21;;;;;;;;;;;51.30;1510.40;;;;;;6238212;23;19904;-76
2022/03/21 06:25:47;;;;;;;;;;;52.10;1484.80;;;;;;6238178;23;19900;-76
2022/03/21 06:28:16;;;;;;;;;;;51.50;1484.80;;;;;;6241437;23;19923;-76
2022/03/21 06:30:43;;;;;;;;;;;51.60;1459.20;;;;;;6241197;23;19900;-77
2022/03/21 06:33:09;;;;;;;;;;;51.70;1459.20;;;;;;6253551;22;19922;-76
2022/03/21 06:35:35;;;;;;;;;;;51.70;1459.20;;;;;;6241671;23;19899;-76
2022/03/21 06:38:00;;;;;;;;;;;51.80;1459.20;;;;;;6269912;23;19899;-75
2022/03/21 06:40:27;;;;;;;;;;;51.90;1459.20;;;;;;6243173;23;20222;-75
2022/03/21 06:42:52;;;;;;;;;;;52.00;1459.20;;;;;;6269014;23;19981;-75
2022/03/21 06:45:18;;;;;;;;;;;52.00;1433.60;;;;;;6269542;23;19903;-76
2022/03/21 06:48:01;;;;;;;;;;;76.80;1433.60;;;;;;6270211;23;19907;-76
2022/03/21 06:50:27;;;;;;;;;;;76.80;1433.60;;;;;;6238101;23;20351;-75
2022/03/21 06:52:54;;;;;;;;;;;76.90;1433.60;;;;;;6242749;23;19904;-75
2022/03/21 06:55:25;;;;;;;;;;;76.90;1433.60;;;;;;6271177;23;20405;-76
2022/03/21 06:58:14;;;;;;;;;;;77.00;1408.00;;;;;;6272256;23;19899;-76
2022/03/21 07:01:00;;;;;;;;;;;77.10;1408.00;;;;;;6268756;23;19908;-75
2022/03/21 07:03:30;;;;;;;;;;;77.20;1408.00;;;;;;6268881;22;19915;-76
2022/03/21 07:05:56;;;;;;;;;;;77.30;1408.00;;;;;;6269967;23;20240;-75
2022/03/21 07:08:22;;;;;;;;;;;77.40;2227.20;;;;;;6271316;23;19907;-76
2022/03/21 07:10:47;;;;;;;;;;;77.50;1382.40;;;;;;6243403;23;19911;-76
2022/03/21 07:13:13;;;;;;;;;;;77.50;1408.00;;;;;;6243275;23;19900;-76
2022/03/21 07:15:39;;;;;;;;;;;77.50;1408.00;;;;;;6271377;23;19899;-77
2022/03/21 07:18:08;;;;;;;;;;;77.70;1356.80;;;;;;6269051;23;19904;-75
2022/03/21 07:20:34;;;;;;;;;;;102.40;1356.80;;;;;;6244539;23;19903;-77
2022/03/21 07:23:00;;;;;;;;;;;102.60;1356.80;;;;;;6270336;23;19899;-75
2022/03/21 07:25:27;;;;;;;;;;;102.70;1331.20;;;;;;6194165;23;19900;-75
2022/03/21 07:28:02;;;;;;;;;;;102.90;1331.20;;;;;;6241318;23;19899;-76
2022/03/21 07:30:51;;;;;;;;;;;103.00;1305.60;;;;;;6243165;23;19941;-75
2022/03/21 07:33:21;;;;;;;;;;;103.20;1305.60;;;;;;6237357;23;19924;-75
2022/03/21 07:35:46;;;;;;;;;;;128.00;1331.20;;;;;;6234300;23;19899;-75
2022/03/21 07:38:13;;;;;;;;;;;;;;;;;;6231586;23;19900;-75
2022/03/21 07:40:47;;;;;;;;;;;128.50;1280.00;;;;;;6233180;23;19938;-75
2022/03/21 07:43:13;;;;;;;;;;;128.80;1331.20;;;;;;6207480;23;19935;-75
2022/03/21 07:48:25;;;;;;;;;;;153.80;1228.80;;;;;;6207525;23;19948;-75
2022/03/21 07:50:52;;;;;;;;;;;154.00;1203.20;;;;;;6204705;23;20369;-75
2022/03/21 07:53:17;;;;;;;;;;;154.30;1203.20;;;;;;6207227;23;19900;-76
2022/03/21 07:55:43;;;;;;;;;;;179.20;1177.60;;;;;;6207047;23;19906;-76
2022/03/21 07:58:09;;;;;;;;;;;179.40;1152.00;;;;;;6178137;23;19944;-76
2022/03/21 08:00:35;;;;;;;;;;;179.80;1126.40;;;;;;6182780;23;19908;-76
2022/03/21 08:03:02;;;;;;;;;;;204.80;1100.80;;;;;;6180539;23;19900;-77
2022/03/21 08:05:34;;;;;;;;;;;205.10;1100.80;;;;;;6228199;23;19924;-76
2022/03/21 08:07:59;;;;;;;;;;;205.50;1075.20;;;;;;6205776;23;19983;-76
2022/03/21 08:10:25;;;;;;;;;;;230.50;1024.00;;;;;;6206245;23;19900;-77
2022/03/21 08:12:57;;;;;;;;;;;230.80;1126.40;;;;;;6203047;23;19944;-75
2022/03/21 08:15:23;;;;;;;;;;;231.30;1024.00;;;;;;6204889;23;19986;-76
2022/03/21 08:17:49;;;;;;;;;;;231.30;1024.00;;;;;;6203881;23;19904;-77
2022/03/21 08:20:16;;;;;;;;;;;282.10;921.60;;;;;;6174916;23;20337;-76
2022/03/21 08:22:44;;;;;;;;;;;333.50;844.80;;;;;;6204677;23;19884;-77
2022/03/21 08:25:10;;;;;;;;;;;384.60;768.00;;;;;;6205160;23;19922;-76
2022/03/21 08:27:41;;;;;;;;;;;410.50;742.40;;;;;;6203894;23;19900;-76
2022/03/21 08:30:07;;;;;;;;;;;461.20;716.80;;;;;;6205851;23;19923;-78
2022/03/21 08:32:39;;;;;;;;;;;486.70;691.20;;;;;;6211561;23;19900;-76
2022/03/21 08:35:09;;;;;;;;;;;512.10;665.60;;;;;;6235753;23;20278;-75
2022/03/21 08:37:39;;;;;;;;;;;537.90;640.00;;;;;;6206975;23;19904;-78
2022/03/21 08:40:07;;;;;;;;;;;538.30;614.40;;;;;;6216907;23;19990;-86
2022/03/21 08:42:32;;;;;;;;;;;564.00;614.40;;;;;;6216773;23;19900;-84
2022/03/21 08:44:58;;;;;;;;;;;589.40;563.20;;;;;;6216661;23;19907;-80
2022/03/21 08:47:24;;;;;;;;;;;614.70;537.60;;;;;;6216102;23;20310;-84
2022/03/21 08:49:50;;;;;;;;;;;615.30;512.00;;;;;;6190049;23;20285;-84
2022/03/21 08:52:15;;;;;;;;;;;640.50;486.40;;;;;;6216687;23;19907;-79
2022/03/21 08:54:41;;;;;;;;;;;640.70;486.40;;;;;;6189818;23;19962;-77
2022/03/21 08:57:07;;;;;;;;;;;666.00;486.40;;;;;;6216544;23;20277;-77
2022/03/21 08:59:33;;;;;;;;;;;666.40;486.40;;;;;;6216223;23;19983;-77
2022/03/21 09:01:58;;;;;;;;;;;691.90;460.80;;;;;;6216386;23;19970;-77
2022/03/21 09:04:24;;;;;;;;;;;717.20;460.80;;;;;;6189274;23;19926;-79
2022/03/21 09:06:50;;;;;;;;;;;717.60;460.80;;;;;;6189707;23;19900;-77
2022/03/21 09:09:18;;;;;;;;;;;743.00;460.80;;;;;;6216340;23;19900;-77
2022/03/21 09:11:44;;;;;;;;;;;743.20;435.20;;;;;;6216241;23;19907;-78
2022/03/21 09:14:09;;;;;;;;;;;743.30;435.20;;;;;;6216125;23;19904;-75
2022/03/21 09:16:38;;;;;;;;;;;768.80;409.60;;;;;;6216265;23;19900;-78
2022/03/21 09:19:03;;;;;;;;;;;793.90;435.20;;;;;;6189440;23;19899;-76
2022/03/21 09:21:29;;;;;;;;;;;819.40;409.60;;;;;;6215977;23;19973;-76
2022/03/21 09:23:55;;;;;;;;;;;819.70;384.00;;;;;;6215968;23;19900;-75
2022/03/21 09:26:21;;;;;;;;;;;845.00;384.00;;;;;;6189305;23;19904;-80
2022/03/21 09:28:48;;;;;;;;;;;845.30;384.00;;;;;;6189466;23;19907;-77
2022/03/21 09:31:14;;;;;;;;;;;845.50;358.40;;;;;;6189148;23;19912;-76
2022/03/21 09:33:41;;;;;;;;;;;870.60;332.80;;;;;;6215722;23;19904;-80
2022/03/21 09:36:07;;;;;;;;;;;871.00;332.80;;;;;;6214471;23;20382;-76
2022/03/21 09:38:33;;;;;;;;;;;896.20;332.80;;;;;;6215814;23;20305;-77
2022/03/21 09:40:59;;;;;;;;;;;896.70;307.20;;;;;;6189028;23;19908;-78
2022/03/21 09:43:25;;;;;;;;;;;922.10;332.80;;;;;;6215698;23;20224;-76
2022/03/21 09:45:52;;;;;;;;;;;922.20;307.20;;;;;;6188996;23;19900;-76
2022/03/21 09:48:19;;;;;;;;;;;947.20;307.20;;;;;;6215674;23;19900;-78
2022/03/21 09:50:45;;;;;;;;;;;947.80;281.60;;;;;;6215670;23;19911;-76
2022/03/21 09:53:15;;;;;;;;;;;972.80;307.20;;;;;;6215457;23;19983;-79
2022/03/21 09:55:42;;;;;;;;;;;972.80;332.80;;;;;;6215754;23;19900;-79
2022/03/21 09:58:11;;;;;;;;;;;973.10;307.20;;;;;;6189157;23;19982;-78
2022/03/21 10:00:38;;;;;;;;;;;973.40;307.20;;;;;;6188674;23;19946;-76
2022/03/21 10:03:04;;;;;;;;;;;972.90;307.20;;;;;;6188737;23;19906;-77
2022/03/21 10:05:37;;;;;;;;;;;973.20;307.20;;;;;;6208487;23;19908;-80
2022/03/21 10:08:21;;;;;;;;;;;922.20;307.20;;;;;;6187031;23;19907;-76
2022/03/21 10:11:05;;;;;;;;;;;845.30;358.40;;;;;;6187392;23;19912;-78
2022/03/21 10:13:32;;;;;;;;;;;743.10;384.00;;;;;;6187603;23;19987;-78
2022/03/21 10:16:08;;;;;;;;;;;666.50;384.00;;;;;;6214676;23;19908;-81
2022/03/21 10:18:34;;;;;;;;;;;640.00;409.60;;;;;;6189322;23;20348;-78
2022/03/21 10:21:13;;;;;;;;;;;589.70;460.80;;;;;;6215460;23;19910;-79
2022/03/21 10:23:38;;;;;;;;;;;563.80;512.00;;;;;;6189758;23;19904;-77
2022/03/21 10:26:25;;;;;;;;;;;538.50;512.00;;;;;;6215813;23;19955;-77
2022/03/21 10:28:53;;;;;;;;;;;537.80;512.00;;;;;;6213639;23;20348;-77
2022/03/21 10:31:32;;;;;;;;;;;512.80;512.00;;;;;;6185455;23;19991;-77
2022/03/21 10:33:59;;;;;;;;;;;512.30;512.00;;;;;;6159949;23;19939;-81
2022/03/21 10:36:24;;;;;;;;;;;512.00;537.60;;;;;;6159452;23;19908;-83
2022/03/21 10:39:05;;;;;;;;;;;487.10;537.60;;;;;;6186291;23;20304;-79
2022/03/21 10:41:35;;;;;;;;;;;486.60;563.20;;;;;;6186062;23;19911;-80
2022/03/21 10:44:02;;;;;;;;;;;486.50;588.80;;;;;;6159966;23;19982;-81
2022/03/21 10:46:27;;;;;;;;;;;486.50;588.80;;;;;;6186044;23;20364;-81
2022/03/21 10:49:08;;;;;;;;;;;486.40;588.80;;;;;;6186254;23;19904;-82
2022/03/21 10:51:50;;;;;;;;;;;486.40;588.80;;;;;;6185976;23;19995;-82
2022/03/21 10:54:34;;;;;;;;;;;461.60;614.40;;;;;;6186121;23;20341;-80
2022/03/21 10:57:00;;;;;;;;;;;461.60;563.20;;;;;;6185689;23;19904;-81
2022/03/21 10:59:26;;;;;;;;;;;461.60;588.80;;;;;;6186058;23;19947;-83
2022/03/21 11:02:12;;;;;;;;;;;461.40;588.80;;;;;;6185949;23;19900;-83
2022/03/21 11:04:40;;;;;;;;;;;461.30;588.80;;;;;;6185028;23;19991;-82
2022/03/21 11:07:06;;;;;;;;;;;461.30;588.80;;;;;;6160272;23;19999;-82
2022/03/21 11:09:34;;;;;;;;;;;461.20;588.80;;;;;;6159082;23;20238;-80
2022/03/21 11:12:00;;;;;;;;;;;461.20;614.40;;;;;;6159182;23;20566;-84
2022/03/21 11:14:26;;;;;;;;;;;461.00;614.40;;;;;;6159542;23;19954;-85
2022/03/21 11:16:52;;;;;;;;;;;461.00;614.40;;;;;;6160219;23;19907;-80
2022/03/21 11:19:18;;;;;;;;;;;460.90;614.40;;;;;;6186208;23;19987;-83
2022/03/21 11:21:44;;;;;;;;;;;460.80;614.40;;;;;;6186053;23;19943;-83
2022/03/21 11:24:11;;;;;;;;;;;460.80;640.00;;;;;;6186659;23;19928;-85
2022/03/21 11:26:47;;;;;;;;;;;436.10;588.80;;;;;;6160227;23;20289;-85
2022/03/21 11:29:25;;;;;;;;;;;436.00;614.40;;;;;;6163893;23;19915;-85
2022/03/21 11:32:06;;;;;;;;;;;436.00;614.40;;;;;;6189483;23;20241;-79
2022/03/21 11:34:31;;;;;;;;;;;435.80;588.80;;;;;;6216710;23;20191;-83
2022/03/21 11:36:58;;;;;;;;;;;435.30;614.40;;;;;;6216521;23;20359;-87
2022/03/21 11:39:24;;;;;;;;;;;435.40;588.80;;;;;;6190129;23;19899;-84
2022/03/21 11:42:00;;;;;;;;;;;435.40;614.40;;;;;;6216431;23;19903;-88
2022/03/21 11:44:26;;;;;;;;;;;435.50;614.40;;;;;;6216474;23;19907;-86
2022/03/21 11:46:52;;;;;;;;;;;435.40;640.00;;;;;;6190252;23;19900;-87
2022/03/21 11:49:18;;;;;;;;;;;435.30;588.80;;;;;;6217250;23;19900;-86
2022/03/21 11:51:44;;;;;;;;;;;435.40;640.00;;;;;;6190720;23;19907;-84
2022/03/21 11:54:26;;;;;;;;;;;435.50;614.40;;;;;;6217459;23;19935;-85
2022/03/21 11:56:53;;;;;;;;;;;435.50;640.00;;;;;;6190491;23;19911;-87
2022/03/21 11:59:28;;;;;;;;;;;435.70;614.40;;;;;;6189934;23;19950;-86
2022/03/21 12:01:54;;;;;;;;;;;435.70;614.40;;;;;;6214919;23;19900;-87
2022/03/21 12:04:29;;;;;;;;;;;435.40;640.00;;;;;;6216071;23;19904;-86
2022/03/21 12:06:59;;;;;;;;;;;435.70;614.40;;;;;;6216407;23;20026;-86
2022/03/21 12:09:37;;;;;;;;;;;435.70;614.40;;;;;;6189685;23;19904;-87
2022/03/21 12:12:04;;;;;;;;;;;435.80;614.40;;;;;;6189741;23;19943;-85
2022/03/21 12:14:36;;;;;;;;;;;435.70;614.40;;;;;;6191121;23;20372;-87
2022/03/21 12:17:01;;;;;;;;;;;435.90;588.80;;;;;;6217963;23;20320;-87
2022/03/21 12:19:48;;;;;;;;;;;435.90;588.80;;;;;;6217549;23;19931;-86
2022/03/21 12:25:04;;;;;;;;;;;435.90;588.80;;;;;;6217409;23;19950;-87
2022/03/21 12:27:40;;;;;;;;;;;436.00;614.40;;;;;;6190854;23;19939;-85
2022/03/21 12:30:27;;;;;;;;;;;436.00;588.80;;;;;;6175308;23;19919;-86
2022/03/21 12:32:56;;;;;;;;;;;436.10;588.80;;;;;;6160944;23;19902;-87
2022/03/21 12:35:31;;;;;;;;;;;460.80;614.40;;;;;;6161043;23;19907;-87
2022/03/21 12:38:00;;;;;;;;;;;460.90;614.40;;;;;;6161057;23;19900;-87
2022/03/21 12:40:26;;;;;;;;;;;460.90;614.40;;;;;;6161058;23;19931;-86
2022/03/21 12:42:54;;;;;;;;;;;435.70;640.00;;;;;;6160956;23;19904;-87
2022/03/21 12:45:20;;;;;;;;;;;436.10;640.00;;;;;;6161026;23;19900;-87
2022/03/21 12:47:47;;;;;;;;;;;460.90;665.60;;;;;;6187441;23;19923;-87
2022/03/21 12:50:20;;;;;;;;;;;461.10;640.00;;;;;;6187245;23;20278;-87
2022/03/21 12:52:51;;;;;;;;;;;461.20;640.00;;;;;;6160943;23;19901;-88
2022/03/21 12:55:17;;;;;;;;;;;461.30;614.40;;;;;;6187300;23;19900;-87
2022/03/21 12:58:03;;;;;;;;;;;461.50;614.40;;;;;;6187181;23;19922;-88
2022/03/21 13:00:34;;;;;;;;;;;486.90;588.80;;;;;;6187010;23;19935;-86
2022/03/21 13:03:03;;;;;;;;;;;640.80;435.20;;;;;;6187044;23;19904;-88
2022/03/21 13:11:19;;;;;;;;;;;999.20;332.80;;;;;;6186946;23;19931;-84
2022/03/21 13:13:47;;;;;;;;;;;1050.30;358.40;;;;;;6160457;23;19900;-82
2022/03/21 13:16:15;;;;;;;;;;;1101.40;384.00;;;;;;6187061;23;19900;-81
2022/03/21 13:18:40;;;;;;;;;;;1127.20;409.60;;;;;;6160203;23;19904;-83
2022/03/21 13:21:07;;;;;;;;;;;1152.80;409.60;;;;;;6185243;23;19992;-82
2022/03/21 13:23:34;;;;;;;;;;;1177.90;409.60;;;;;;6159990;23;19904;-77
2022/03/21 13:26:10;;;;;;;;;;;1178.20;409.60;;;;;;6186355;23;20009;-77
2022/03/21 13:28:38;;;;;;;;;;;1203.40;435.20;;;;;;6160073;23;20238;-82
2022/03/21 13:31:09;;;;;;;;;;;1203.50;435.20;;;;;;6186855;23;19911;-82
2022/03/21 13:33:36;;;;;;;;;;;1203.80;435.20;;;;;;6216600;23;19907;-82
2022/03/21 13:36:03;;;;;;;;;;;1203.50;435.20;;;;;;6216452;23;20027;-81
2022/03/21 13:38:31;;;;;;;;;;;1204.00;435.20;;;;;;6190501;23;20316;-82
2022/03/21 13:40:57;;;;;;;;;;;1228.80;460.80;;;;;;6216624;23;20309;-82
2022/03/21 13:43:25;;;;;;;;;;;1204.00;435.20;;;;;;6216446;23;19954;-82
2022/03/21 13:45:52;;;;;;;;;;;1229.10;460.80;;;;;;6189759;23;20206;-82
2022/03/21 13:48:38;;;;;;;;;;;1229.30;460.80;;;;;;6189805;23;20322;-82
2022/03/21 13:51:05;;;;;;;;;;;1229.50;460.80;;;;;;6190488;23;19908;-81
2022/03/21 13:53:32;;;;;;;;;;;1228.90;460.80;;;;;;6191609;23;19900;-82
2022/03/21 13:55:58;;;;;;;;;;;1229.30;460.80;;;;;;6191614;23;19906;-82
2022/03/21 13:58:25;;;;;;;;;;;1229.30;460.80;;;;;;6218187;23;19900;-82
2022/03/21 14:00:52;;;;;;;;;;;1228.90;460.80;;;;;;6218126;23;19927;-82
2022/03/21 14:03:34;;;;;;;;;;;1229.30;460.80;;;;;;6218212;23;20230;-81
2022/03/21 14:06:01;;;;;;;;;;;1229.40;460.80;;;;;;6191416;23;19911;-81
2022/03/21 14:08:27;;;;;;;;;;;1203.80;435.20;;;;;;6218404;23;19900;-82
2022/03/21 14:11:22;;;;;;;;;;;1152.80;409.60;;;;;;6191388;23;19915;-81
2022/03/21 14:13:50;;;;;;;;;;;1203.20;435.20;;;;;;6186047;23;19900;-81
2022/03/21 14:16:15;;;;;;;;;;;1203.70;435.20;;;;;;6218061;23;19939;-81
2022/03/21 14:18:51;;;;;;;;;;;1178.30;409.60;;;;;;6191411;23;19954;-82
2022/03/21 14:21:17;;;;;;;;;;;1024.20;332.80;;;;;;6217962;23;19900;-81
2022/03/21 14:23:43;;;;;;;;;;;871.20;256.00;;;;;;6217406;23;19930;-81
2022/03/21 14:28:52;;;;;;;;;;;717.00;358.40;;;;;;6217855;23;19987;-79
2022/03/21 14:31:18;;;;;;;;;;;665.80;358.40;;;;;;6218245;23;19939;-80
2022/03/21 14:33:47;;;;;;;;;;;640.10;384.00;;;;;;6218010;23;20322;-82
2022/03/21 14:36:13;;;;;;;;;;;589.70;435.20;;;;;;6191403;23;19906;-81
2022/03/21 14:38:39;;;;;;;;;;;588.80;460.80;;;;;;6191235;23;19900;-82
2022/03/21 14:41:08;;;;;;;;;;;563.50;486.40;;;;;;6218040;23;20313;-83
2022/03/21 14:43:34;;;;;;;;;;;538.30;460.80;;;;;;6191381;23;19904;-81
2022/03/21 14:46:01;;;;;;;;;;;537.90;486.40;;;;;;6218322;23;19900;-83
2022/03/21 14:48:27;;;;;;;;;;;512.70;486.40;;;;;;6217964;23;19906;-83
2022/03/21 14:50:54;;;;;;;;;;;512.40;486.40;;;;;;6217970;23;19914;-84
2022/03/21 14:53:19;;;;;;;;;;;512.20;486.40;;;;;;6190887;23;20298;-85